sensor_id;sensor_type;location;lat;lon;timestamp;pressure;altitude;pressure_sealevel;temperature;humidity
71716;BME280;59568;52.128;5.434;2023-03-08T00:01:11;100211.06;;;-2.37;100.00
71716;BME280;59568;52.128;5.434;2023-03-08T00:03:39;100218.75;;;-2.37;100.00
71716;BME280;59568;52.128;5.434;2023-03-08T00:06:08;100231.53;;;-2.37;100.00
71716;BME280;59568;52.128;5.434;2023-03-08T00:08:36;100219.00;;;-2.39;100.00
71716;BME280;59568;52.128;5.434;2023-03-08T00:11:07;100213.88;;;-2.39;100.00
71716;BME280;59568;52.128;5.434;2023-03-08T00:13:34;100210.50;;;-2.39;100.00
71716;BME280;59568;52.128;5.434;2023-03-08T00:16:03;100201.28;;;-2.41;100.00
71716;BME280;59568;52.128;5.434;2023-03-08T00:18:30;100210.75;;;-2.41;100.00
71716;BME280;59568;52.128;5.434;2023-03-08T00:21:00;100219.41;;;-2.42;100.00
71716;BME280;59568;52.128;5.434;2023-03-08T00:23:27;100225.75;;;-2.45;100.00
71716;BME280;59568;52.128;5.434;2023-03-08T00:25:54;100214.16;;;-2.47;100.00
71716;BME280;59568;52.128;5.434;2023-03-08T00:28:22;100217.50;;;-2.47;100.00
71716;BME280;59568;52.128;5.434;2023-03-08T00:30:59;100214.16;;;-2.47;100.00
71716;BME280;59568;52.128;5.434;2023-03-08T00:33:26;100217.91;;;-2.50;100.00
71716;BME280;59568;52.128;5.434;2023-03-08T00:35:58;100201.78;;;-2.50;100.00
71716;BME280;59568;52.128;5.434;2023-03-08T00:38:25;100222.25;;;-2.50;100.00
71716;BME280;59568;52.128;5.434;2023-03-08T00:40:52;100212.22;;;-2.52;100.00
71716;BME280;59568;52.128;5.434;2023-03-08T00:43:19;100212.47;;;-2.53;100.00
71716;BME280;59568;52.128;5.434;2023-03-08T00:45:46;100212.66;;;-2.55;100.00
71716;BME280;59568;52.128;5.434;2023-03-08T00:48:18;100208.78;;;-2.57;100.00
71716;BME280;59568;52.128;5.434;2023-03-08T00:50:45;100208.97;;;-2.59;100.00
71716;BME280;59568;52.128;5.434;2023-03-08T00:53:11;100202.28;;;-2.60;100.00
71716;BME280;59568;52.128;5.434;2023-03-08T00:55:38;100202.72;;;-2.63;100.00
71716;BME280;59568;52.128;5.434;2023-03-08T00:58:04;100205.50;;;-2.65;100.00
71716;BME280;59568;52.128;5.434;2023-03-08T01:00:31;100206.25;;;-2.64;100.00
71716;BME280;59568;52.128;5.434;2023-03-08T01:02:57;100201.16;;;-2.64;100.00
71716;BME280;59568;52.128;5.434;2023-03-08T01:05:24;100195.47;;;-2.66;100.00
71716;BME280;59568;52.128;5.434;2023-03-08T01:07:51;100192.91;;;-2.66;100.00
71716;BME280;59568;52.128;5.434;2023-03-08T01:10:17;100182.09;;;-2.68;100.00
71716;BME280;59568;52.128;5.434;2023-03-08T01:12:44;100188.22;;;-2.69;100.00
71716;BME280;59568;52.128;5.434;2023-03-08T01:15:11;100180.13;;;-2.66;100.00
71716;BME280;59568;52.128;5.434;2023-03-08T01:17:37;100182.09;;;-2.68;100.00
71716;BME280;59568;52.128;5.434;2023-03-08T01:20:04;100169.13;;;-2.67;100.00
71716;BME280;59568;52.128;5.434;2023-03-08T01:22:31;100166.13;;;-2.64;100.00
71716;BME280;59568;52.128;5.434;2023-03-08T01:24:57;100161.81;;;-2.63;100.00
71716;BME280;59568;52.128;5.434;2023-03-08T01:27:24;100160.22;;;-2.64;100.00
71716;BME280;59568;52.128;5.434;2023-03-08T01:29:50;100162.22;;;-2.66;100.00
71716;BME280;59568;52.128;5.434;2023-03-08T01:32:17;100161.44;;;-2.67;100.00
71716;BME280;59568;52.128;5.434;2023-03-08T01:34:43;100165.78;;;-2.67;100.00
71716;BME280;59568;52.128;5.434;2023-03-08T01:37:10;100154.97;;;-2.69;100.00
71716;BME280;59568;52.128;5.434;2023-03-08T01:39:36;100153.41;;;-2.70;100.00
71716;BME280;59568;52.128;5.434;2023-03-08T01:42:04;100149.31;;;-2.71;100.00
71716;BME280;59568;52.128;5.434;2023-03-08T01:47:22;100149.31;;;-2.71;100.00
71716;BME280;59568;52.128;5.434;2023-03-08T01:49:52;100144.59;;;-2.74;100.00
71716;BME280;59568;52.128;5.434;2023-03-08T01:52:26;100143.06;;;-2.75;100.00
71716;BME280;59568;52.128;5.434;2023-03-08T01:55:00;100137.38;;;-2.77;100.00
71716;BME280;59568;52.128;5.434;2023-03-08T01:57:30;100135.59;;;-2.77;100.00
71716;BME280;59568;52.128;5.434;2023-03-08T02:00:12;100124.78;;;-2.79;100.00
71716;BME280;59568;52.128;5.434;2023-03-08T02:02:42;100117.53;;;-2.82;100.00
71716;BME280;59568;52.128;5.434;2023-03-08T02:05:10;100108.88;;;-2.81;100.00
71716;BME280;59568;52.128;5.434;2023-03-08T02:07:36;100110.88;;;-2.83;100.00
71716;BME280;59568;52.128;5.434;2023-03-08T02:10:03;100114.22;;;-2.83;100.00
71716;BME280;59568;52.128;5.434;2023-03-08T02:12:30;100105.00;;;-2.84;100.00
71716;BME280;59568;52.128;5.434;2023-03-08T02:14:57;100103.41;;;-2.85;100.00
71716;BME280;59568;52.128;5.434;2023-03-08T02:17:24;100099.53;;;-2.87;100.00
71716;BME280;59568;52.128;5.434;2023-03-08T02:19:59;100104.06;;;-2.89;100.00
71716;BME280;59568;52.128;5.434;2023-03-08T02:22:37;100089.13;;;-2.92;100.00
71716;BME280;59568;52.128;5.434;2023-03-08T02:25:24;100095.03;;;-2.92;100.00
71716;BME280;59568;52.128;5.434;2023-03-08T02:27:52;100089.91;;;-2.92;100.00
71716;BME280;59568;52.128;5.434;2023-03-08T02:30:25;100088.94;;;-2.91;100.00
71716;BME280;59568;52.128;5.434;2023-03-08T02:32:52;100079.69;;;-2.92;100.00
71716;BME280;59568;52.128;5.434;2023-03-08T02:35:19;100086.38;;;-2.91;100.00
71716;BME280;59568;52.128;5.434;2023-03-08T02:37:46;100085.81;;;-2.93;100.00
71716;BME280;59568;52.128;5.434;2023-03-08T02:40:13;100083.47;;;-2.94;100.00
71716;BME280;59568;52.128;5.434;2023-03-08T02:42:39;100077.00;;;-2.97;100.00
71716;BME280;59568;52.128;5.434;2023-03-08T02:45:07;100074.00;;;-2.94;100.00
71716;BME280;59568;52.128;5.434;2023-03-08T02:47:34;100072.47;;;-2.95;100.00
71716;BME280;59568;52.128;5.434;2023-03-08T02:50:01;100075.03;;;-2.95;100.00
71716;BME280;59568;52.128;5.434;2023-03-08T02:52:27;100069.34;;;-2.97;100.00
71716;BME280;59568;52.128;5.434;2023-03-08T02:54:53;100066.22;;;-2.99;100.00
71716;BME280;59568;52.128;5.434;2023-03-08T02:57:20;100062.66;;;-2.98;100.00
71716;BME280;59568;52.128;5.434;2023-03-08T02:59:47;100057.34;;;-2.96;100.00
71716;BME280;59568;52.128;5.434;2023-03-08T03:02:13;100058.91;;;-2.95;100.00
71716;BME280;59568;52.128;5.434;2023-03-08T03:04:40;100063.00;;;-2.94;100.00
71716;BME280;59568;52.128;5.434;2023-03-08T03:07:07;100058.69;;;-2.94;100.00
71716;BME280;59568;52.128;5.434;2023-03-08T03:09:34;100060.81;;;-2.91;100.00
71716;BME280;59568;52.128;5.434;2023-03-08T03:12:01;100062.59;;;-2.91;100.00
71716;BME280;59568;52.128;5.434;2023-03-08T03:14:28;100066.91;;;-2.92;100.00
71716;BME280;59568;52.128;5.434;2023-03-08T03:16:54;100076.94;;;-2.90;100.00
71716;BME280;59568;52.128;5.434;2023-03-08T03:19:21;100061.78;;;-2.92;100.00
71716;BME280;59568;52.128;5.434;2023-03-08T03:21:47;100063.78;;;-2.94;100.00
71716;BME280;59568;52.128;5.434;2023-03-08T03:24:14;100063.78;;;-2.94;100.00
71716;BME280;59568;52.128;5.434;2023-03-08T03:26:41;100060.81;;;-2.91;100.00
71716;BME280;59568;52.128;5.434;2023-03-08T03:29:07;100054.69;;;-2.90;100.00
71716;BME280;59568;52.128;5.434;2023-03-08T03:31:34;100059.38;;;-2.87;100.00
71716;BME280;59568;52.128;5.434;2023-03-08T03:34:01;100051.06;;;-2.82;100.00
71716;BME280;59568;52.128;5.434;2023-03-08T03:36:28;100053.00;;;-2.77;100.00
71716;BME280;59568;52.128;5.434;2023-03-08T03:38:54;100049.78;;;-2.73;100.00
71716;BME280;59568;52.128;5.434;2023-03-08T03:41:22;100042.00;;;-2.66;100.00
71716;BME280;59568;52.128;5.434;2023-03-08T03:43:49;100035.47;;;-2.62;100.00
71716;BME280;59568;52.128;5.434;2023-03-08T03:46:18;100031.47;;;-2.58;100.00
71716;BME280;59568;52.128;5.434;2023-03-08T03:48:45;100026.72;;;-2.54;100.00
71716;BME280;59568;52.128;5.434;2023-03-08T03:51:15;100018.72;;;-2.46;100.00
71716;BME280;59568;52.128;5.434;2023-03-08T03:53:42;100010.94;;;-2.39;100.00
71716;BME280;59568;52.128;5.434;2023-03-08T03:56:17;100006.72;;;-2.34;100.00
71716;BME280;59568;52.128;5.434;2023-03-08T03:58:44;100007.06;;;-2.30;100.00
71716;BME280;59568;52.128;5.434;2023-03-08T04:03:42;99998.66;;;-2.19;100.00
71716;BME280;59568;52.128;5.434;2023-03-08T04:06:15;100010.00;;;-2.15;100.00
71716;BME280;59568;52.128;5.434;2023-03-08T04:08:42;100008.22;;;-2.14;100.00
71716;BME280;59568;52.128;5.434;2023-03-08T04:11:15;100017.22;;;-2.12;100.00
71716;BME280;59568;52.128;5.434;2023-03-08T04:13:42;100015.56;;;-2.06;100.00
71716;BME280;59568;52.128;5.434;2023-03-08T04:16:18;100011.78;;;-2.04;100.00
71716;BME280;59568;52.128;5.434;2023-03-08T04:18:45;100010.31;;;-1.99;100.00
71716;BME280;59568;52.128;5.434;2023-03-08T04:21:13;100003.44;;;-1.99;100.00
71716;BME280;59568;52.128;5.434;2023-03-08T04:23:40;100014.00;;;-1.95;100.00
71716;BME280;59568;52.128;5.434;2023-03-08T04:26:06;100007.69;;;-1.93;100.00
71716;BME280;59568;52.128;5.434;2023-03-08T04:28:33;100001.75;;;-1.93;100.00
71716;BME280;59568;52.128;5.434;2023-03-08T04:31:16;99999.31;;;-1.88;100.00
71716;BME280;59568;52.128;5.434;2023-03-08T04:33:44;99988.19;;;-1.82;100.00
71716;BME280;59568;52.128;5.434;2023-03-08T04:36:12;99988.53;;;-1.78;100.00
71716;BME280;59568;52.128;5.434;2023-03-08T04:38:39;99984.16;;;-1.78;100.00
71716;BME280;59568;52.128;5.434;2023-03-08T04:41:06;99983.41;;;-1.78;100.00
71716;BME280;59568;52.128;5.434;2023-03-08T04:43:53;99983.28;;;-1.72;100.00
71716;BME280;59568;52.128;5.434;2023-03-08T04:46:22;99968.47;;;-1.70;100.00
71716;BME280;59568;52.128;5.434;2023-03-08T04:48:49;99977.25;;;-1.66;100.00
71716;BME280;59568;52.128;5.434;2023-03-08T04:51:24;99970.13;;;-1.64;100.00
71716;BME280;59568;52.128;5.434;2023-03-08T04:53:51;99958.88;;;-1.63;100.00
71716;BME280;59568;52.128;5.434;2023-03-08T04:56:18;99951.97;;;-1.62;100.00
71716;BME280;59568;52.128;5.434;2023-03-08T04:58:45;99948.38;;;-1.61;100.00
71716;BME280;59568;52.128;5.434;2023-03-08T05:01:14;99947.41;;;-1.60;100.00
71716;BME280;59568;52.128;5.434;2023-03-08T05:03:41;99944.06;;;-1.61;100.00
71716;BME280;59568;52.128;5.434;2023-03-08T05:06:09;99937.84;;;-1.65;100.00
71716;BME280;59568;52.128;5.434;2023-03-08T05:08:36;99943.88;;;-1.71;100.00
71716;BME280;59568;52.128;5.434;2023-03-08T05:11:03;99932.50;;;-1.75;100.00
71716;BME280;59568;52.128;5.434;2023-03-08T05:13:32;99926.59;;;-1.75;100.00
71716;BME280;59568;52.128;5.434;2023-03-08T05:15:59;99926.16;;;-1.72;100.00
71716;BME280;59568;52.128;5.434;2023-03-08T05:18:26;99934.38;;;-1.70;100.00
71716;BME280;59568;52.128;5.434;2023-03-08T05:21:01;99919.25;;;-1.72;100.00
71716;BME280;59568;52.128;5.434;2023-03-08T05:23:28;99917.69;;;-1.73;100.00
71716;BME280;59568;52.128;5.434;2023-03-08T05:26:00;99907.66;;;-1.74;100.00
71716;BME280;59568;52.128;5.434;2023-03-08T05:28:29;99894.09;;;-1.75;100.00
71716;BME280;59568;52.128;5.434;2023-03-08T05:31:07;99886.41;;;-1.75;100.00
71716;BME280;59568;52.128;5.434;2023-03-08T05:33:35;99888.41;;;-1.77;100.00
71716;BME280;59568;52.128;5.434;2023-03-08T05:36:02;99880.50;;;-1.75;100.00
71716;BME280;59568;52.128;5.434;2023-03-08T05:38:30;99878.94;;;-1.76;100.00
71716;BME280;59568;52.128;5.434;2023-03-08T05:41:01;99879.94;;;-1.77;100.00
71716;BME280;59568;52.128;5.434;2023-03-08T05:43:29;99865.38;;;-1.77;100.00
71716;BME280;59568;52.128;5.434;2023-03-08T05:46:01;99857.44;;;-1.75;100.00
71716;BME280;59568;52.128;5.434;2023-03-08T05:48:29;99851.88;;;-1.72;100.00
71716;BME280;59568;52.128;5.434;2023-03-08T05:50:56;99852.75;;;-1.67;100.00
71716;BME280;59568;52.128;5.434;2023-03-08T05:53:23;99842.94;;;-1.70;100.00
71716;BME280;59568;52.128;5.434;2023-03-08T05:55:50;99831.72;;;-1.69;100.00
71716;BME280;59568;52.128;5.434;2023-03-08T05:58:17;99824.03;;;-1.69;100.00
71716;BME280;59568;52.128;5.434;2023-03-08T06:00:43;99824.09;;;-1.64;100.00
71716;BME280;59568;52.128;5.434;2023-03-08T06:03:09;99821.31;;;-1.62;100.00
71716;BME280;59568;52.128;5.434;2023-03-08T06:05:36;99824.44;;;-1.60;100.00
71716;BME280;59568;52.128;5.434;2023-03-08T06:08:03;99828.84;;;-1.55;100.00
71716;BME280;59568;52.128;5.434;2023-03-08T06:10:30;99821.88;;;-1.60;100.00
71716;BME280;59568;52.128;5.434;2023-03-08T06:12:56;99822.97;;;-1.56;100.00
71716;BME280;59568;52.128;5.434;2023-03-08T06:15:23;99820.19;;;-1.54;100.00
71716;BME280;59568;52.128;5.434;2023-03-08T06:17:53;99811.78;;;-1.50;100.00
71716;BME280;59568;52.128;5.434;2023-03-08T06:20:19;99808.00;;;-1.47;100.00
71716;BME280;59568;52.128;5.434;2023-03-08T06:22:46;99804.97;;;-1.44;100.00
71716;BME280;59568;52.128;5.434;2023-03-08T06:25:13;99809.09;;;-1.43;100.00
71716;BME280;59568;52.128;5.434;2023-03-08T06:27:39;99809.63;;;-1.41;100.00
71716;BME280;59568;52.128;5.434;2023-03-08T06:30:06;99806.63;;;-1.38;100.00
71716;BME280;59568;52.128;5.434;2023-03-08T06:32:33;99806.13;;;-1.35;100.00
71716;BME280;59568;52.128;5.434;2023-03-08T06:35:01;99808.25;;;-1.32;100.00
71716;BME280;59568;52.128;5.434;2023-03-08T06:37:31;99805.59;;;-1.37;100.00
71716;BME280;59568;52.128;5.434;2023-03-08T06:39:59;99807.72;;;-1.34;100.00
71716;BME280;59568;52.128;5.434;2023-03-08T06:42:26;99808.56;;;-1.28;100.00
71716;BME280;59568;52.128;5.434;2023-03-08T06:45:07;99809.34;;;-1.28;100.00
71716;BME280;59568;52.128;5.434;2023-03-08T06:47:34;99808.34;;;-1.27;100.00
71716;BME280;59568;52.128;5.434;2023-03-08T06:50:00;99809.34;;;-1.28;100.00
71716;BME280;59568;52.128;5.434;2023-03-08T06:52:27;99806.56;;;-1.26;100.00
71716;BME280;59568;52.128;5.434;2023-03-08T06:54:53;99812.44;;;-1.26;100.00
71716;BME280;59568;52.128;5.434;2023-03-08T06:57:20;99814.03;;;-1.25;100.00
71716;BME280;59568;52.128;5.434;2023-03-08T06:59:46;99802.53;;;-1.22;100.00
71716;BME280;59568;52.128;5.434;2023-03-08T07:02:13;99810.75;;;-1.20;100.00
71716;BME280;59568;52.128;5.434;2023-03-08T07:04:39;99807.72;;;-1.17;100.00
71716;BME280;59568;52.128;5.434;2023-03-08T07:07:06;99807.25;;;-1.14;100.00
71716;BME280;59568;52.128;5.434;2023-03-08T07:09:33;99810.59;;;-1.13;100.00
71716;BME280;59568;52.128;5.434;2023-03-08T07:11:59;99806.78;;;-1.11;100.00
71716;BME280;59568;52.128;5.434;2023-03-08T07:14:26;99806.56;;;-1.09;100.00
71716;BME280;59568;52.128;5.434;2023-03-08T07:16:54;99803.22;;;-1.10;100.00
71716;BME280;59568;52.128;5.434;2023-03-08T07:19:20;99800.19;;;-1.07;100.00
71716;BME280;59568;52.128;5.434;2023-03-08T07:21:47;99802.06;;;-1.02;100.00
71716;BME280;59568;52.128;5.434;2023-03-08T07:24:13;99796.94;;;-1.02;100.00
71716;BME280;59568;52.128;5.434;2023-03-08T07:26:40;99796.94;;;-1.02;100.00
71716;BME280;59568;52.128;5.434;2023-03-08T07:29:06;99796.00;;;-0.96;100.00
71716;BME280;59568;52.128;5.434;2023-03-08T07:31:33;99791.47;;;-0.89;100.00
71716;BME280;59568;52.128;5.434;2023-03-08T07:34:04;99787.13;;;-0.88;100.00
71716;BME280;59568;52.128;5.434;2023-03-08T07:36:31;99795.19;;;-0.79;100.00
71716;BME280;59568;52.128;5.434;2023-03-08T07:38:58;99788.81;;;-0.77;100.00
71716;BME280;59568;52.128;5.434;2023-03-08T07:41:24;99786.50;;;-0.78;100.00
71716;BME280;59568;52.128;5.434;2023-03-08T07:43:55;99788.03;;;-0.77;100.00
71716;BME280;59568;52.128;5.434;2023-03-08T07:46:22;99787.41;;;-0.68;100.00
71716;BME280;59568;52.128;5.434;2023-03-08T07:48:51;99776.13;;;-0.67;100.00
71716;BME280;59568;52.128;5.434;2023-03-08T07:51:21;99773.88;;;-0.63;100.00
71716;BME280;59568;52.128;5.434;2023-03-08T07:53:50;99769.28;;;-0.61;100.00
71716;BME280;59568;52.128;5.434;2023-03-08T07:56:17;99767.00;;;-0.57;100.00
71716;BME280;59568;52.128;5.434;2023-03-08T07:58:43;99761.16;;;-0.53;100.00
71716;BME280;59568;52.128;5.434;2023-03-08T08:01:12;99757.91;;;-0.48;100.00
71716;BME280;59568;52.128;5.434;2023-03-08T08:03:40;99751.75;;;-0.47;100.00
71716;BME280;59568;52.128;5.434;2023-03-08T08:06:07;99755.16;;;-0.42;100.00
71716;BME280;59568;52.128;5.434;2023-03-08T08:08:34;99758.19;;;-0.45;100.00
71716;BME280;59568;52.128;5.434;2023-03-08T08:11:00;99754.31;;;-0.47;100.00
71716;BME280;59568;52.128;5.434;2023-03-08T08:13:27;99750.97;;;-0.48;100.00
71716;BME280;59568;52.128;5.434;2023-03-08T08:16:00;99748.94;;;-0.46;100.00
71716;BME280;59568;52.128;5.434;2023-03-08T08:18:27;99742.31;;;-0.42;100.00
71716;BME280;59568;52.128;5.434;2023-03-08T08:21:02;99750.66;;;-0.29;100.00
71716;BME280;59568;52.128;5.434;2023-03-08T08:23:32;99743.09;;;-0.19;100.00
71716;BME280;59568;52.128;5.434;2023-03-08T08:26:03;99742.13;;;-0.13;100.00
71716;BME280;59568;52.128;5.434;2023-03-08T08:28:30;99738.53;;;-0.12;100.00
71716;BME280;59568;52.128;5.434;2023-03-08T08:31:06;99730.41;;;-0.04;100.00
71716;BME280;59568;52.128;5.434;2023-03-08T08:33:33;99742.31;;;0.08;100.00
71716;BME280;59568;52.128;5.434;2023-03-08T08:36:03;99738.44;;;0.05;100.00
71716;BME280;59568;52.128;5.434;2023-03-08T08:38:30;99737.91;;;0.03;100.00
71716;BME280;59568;52.128;5.434;2023-03-08T08:41:01;99735.16;;;0.10;100.00
71716;BME280;59568;52.128;5.434;2023-03-08T08:43:28;99735.16;;;0.10;100.00
71716;BME280;59568;52.128;5.434;2023-03-08T08:45:57;99739.75;;;0.08;100.00
71716;BME280;59568;52.128;5.434;2023-03-08T08:48:25;99738.50;;;0.10;100.00
71716;BME280;59568;52.128;5.434;2023-03-08T08:50:52;99738.78;;;0.14;100.00
71716;BME280;59568;52.128;5.434;2023-03-08T08:53:19;99726.44;;;0.11;100.00
71716;BME280;59568;52.128;5.434;2023-03-08T08:55:46;99730.00;;;0.10;100.00
71716;BME280;59568;52.128;5.434;2023-03-08T08:58:12;99730.53;;;0.12;100.00
71716;BME280;59568;52.128;5.434;2023-03-08T09:00:40;99727.97;;;0.12;100.00
71716;BME280;59568;52.128;5.434;2023-03-08T09:03:06;99722.06;;;0.11;100.00
71716;BME280;59568;52.128;5.434;2023-03-08T09:05:37;99714.06;;;0.08;100.00
71716;BME280;59568;52.128;5.434;2023-03-08T09:08:04;99709.97;;;0.07;100.00
71716;BME280;59568;52.128;5.434;2023-03-08T09:10:33;99711.03;;;0.11;100.00
71716;BME280;59568;52.128;5.434;2023-03-08T09:13:00;99717.69;;;0.12;100.00
71716;BME280;59568;52.128;5.434;2023-03-08T09:15:26;99719.28;;;0.18;100.00
71716;BME280;59568;52.128;5.434;2023-03-08T09:17:53;99726.53;;;0.21;100.00
71716;BME280;59568;52.128;5.434;2023-03-08T09:20:20;99721.69;;;0.25;100.00
71716;BME280;59568;52.128;5.434;2023-03-08T09:22:49;99711.94;;;0.27;100.00
71716;BME280;59568;52.128;5.434;2023-03-08T09:25:15;99714.97;;;0.24;100.00
71716;BME280;59568;52.128;5.434;2023-03-08T09:27:44;99716.03;;;0.28;100.00
71716;BME280;59568;52.128;5.434;2023-03-08T09:30:12;99706.56;;;0.28;100.00
71716;BME280;59568;52.128;5.434;2023-03-08T09:32:39;99697.53;;;0.26;100.00
71716;BME280;59568;52.128;5.434;2023-03-08T09:35:06;99688.84;;;0.32;100.00
71716;BME280;59568;52.128;5.434;2023-03-08T09:37:33;99689.13;;;0.35;100.00
71716;BME280;59568;52.128;5.434;2023-03-08T09:40:00;99669.09;;;0.37;100.00
71716;BME280;59568;52.128;5.434;2023-03-08T09:42:29;99668.41;;;0.47;100.00
71716;BME280;59568;52.128;5.434;2023-03-08T09:45:05;99661.75;;;0.51;100.00
71716;BME280;59568;52.128;5.434;2023-03-08T09:55:21;99654.56;;;1.01;100.00
71716;BME280;59568;52.128;5.434;2023-03-08T09:57:59;99656.97;;;1.23;100.00
71716;BME280;59568;52.128;5.434;2023-03-08T10:00:35;99643.38;;;1.33;100.00
71716;BME280;59568;52.128;5.434;2023-03-08T10:11:44;99665.06;;;1.57;100.00
71716;BME280;59568;52.128;5.434;2023-03-08T10:14:19;99650.66;;;1.62;100.00
71716;BME280;59568;52.128;5.434;2023-03-08T10:16:51;99646.03;;;1.74;100.00
71716;BME280;59568;52.128;5.434;2023-03-08T10:19:24;99643.47;;;1.84;100.00
71716;BME280;59568;52.128;5.434;2023-03-08T10:21:55;99639.88;;;2.00;100.00
71716;BME280;59568;52.128;5.434;2023-03-08T10:24:30;99641.19;;;2.13;100.00
71716;BME280;59568;52.128;5.434;2023-03-08T10:27:15;99642.44;;;2.21;100.00
71716;BME280;59568;52.128;5.434;2023-03-08T10:29:48;99643.72;;;2.39;100.00
71716;BME280;59568;52.128;5.434;2023-03-08T10:32:15;99640.13;;;2.40;100.00
71716;BME280;59568;52.128;5.434;2023-03-08T10:34:42;99639.59;;;2.33;100.00
71716;BME280;59568;52.128;5.434;2023-03-08T10:37:09;99642.44;;;2.36;100.00
71716;BME280;59568;52.128;5.434;2023-03-08T10:39:36;99634.22;;;2.39;100.00
71716;BME280;59568;52.128;5.434;2023-03-08T10:42:14;99617.69;;;2.35;100.00
71716;BME280;59568;52.128;5.434;2023-03-08T10:45:11;99603.25;;;2.29;100.00
71716;BME280;59568;52.128;5.434;2023-03-08T10:47:39;99603.78;;;2.26;100.00
71716;BME280;59568;52.128;5.434;2023-03-08T10:52:42;99587.56;;;2.15;100.00
71716;BME280;59568;52.128;5.434;2023-03-08T10:55:19;99581.09;;;2.28;100.00
71716;BME280;59568;52.128;5.434;2023-03-08T10:57:55;99593.44;;;2.47;100.00
71716;BME280;59568;52.128;5.434;2023-03-08T11:00:41;99595.44;;;2.70;100.00
71716;BME280;59568;52.128;5.434;2023-03-08T11:03:20;99601.81;;;2.93;100.00
71716;BME280;59568;52.128;5.434;2023-03-08T11:05:55;99609.03;;;2.96;100.00
71716;BME280;59568;52.128;5.434;2023-03-08T11:08:29;99609.78;;;2.97;100.00
71716;BME280;59568;52.128;5.434;2023-03-08T11:11:00;99603.38;;;2.89;100.00
71716;BME280;59568;52.128;5.434;2023-03-08T11:13:33;99598.47;;;2.88;100.00
71716;BME280;59568;52.128;5.434;2023-03-08T11:24:36;99617.56;;;2.87;100.00
71716;BME280;59568;52.128;5.434;2023-03-08T11:27:40;99620.69;;;2.73;100.00
71716;BME280;59568;52.128;5.434;2023-03-08T11:32:55;99613.47;;;2.75;100.00
71716;BME280;59568;52.128;5.434;2023-03-08T11:35:58;99603.94;;;2.71;100.00
71716;BME280;59568;52.128;5.434;2023-03-08T11:38:29;99591.53;;;2.83;100.00
71716;BME280;59568;52.128;5.434;2023-03-08T11:52:28;99588.22;;;2.67;100.00
71716;BME280;59568;52.128;5.434;2023-03-08T11:57:52;99569.16;;;2.68;100.00
71716;BME280;59568;52.128;5.434;2023-03-08T12:00:25;99552.88;;;2.78;100.00
71716;BME280;59568;52.128;5.434;2023-03-08T12:02:59;99556.16;;;2.84;100.00
71716;BME280;59568;52.128;5.434;2023-03-08T12:05:29;99551.75;;;2.89;100.00
71716;BME280;59568;52.128;5.434;2023-03-08T12:10:50;99547.91;;;2.87;100.00
71716;BME280;59568;52.128;5.434;2023-03-08T12:13:24;99559.25;;;2.86;100.00
71716;BME280;59568;52.128;5.434;2023-03-08T12:15:59;99563.94;;;2.78;100.00
71716;BME280;59568;52.128;5.434;2023-03-08T12:18:39;99555.94;;;2.80;100.00
71716;BME280;59568;52.128;5.434;2023-03-08T12:29:16;99541.44;;;2.89;100.00
71716;BME280;59568;52.128;5.434;2023-03-08T12:31:49;99546.34;;;2.91;100.00
71716;BME280;59568;52.128;5.434;2023-03-08T12:34:37;99532.19;;;2.88;100.00
71716;BME280;59568;52.128;5.434;2023-03-08T12:37:18;99528.03;;;2.92;100.00
71716;BME280;59568;52.128;5.434;2023-03-08T12:40:36;99531.63;;;2.91;100.00
71716;BME280;59568;52.128;5.434;2023-03-08T12:42:43;99546.28;;;3.01;100.00
71716;BME280;59568;52.128;5.434;2023-03-08T12:48:12;99554.59;;;2.93;100.00
71716;BME280;59568;52.128;5.434;2023-03-08T12:56:20;99558.25;;;2.87;100.00
71716;BME280;59568;52.128;5.434;2023-03-08T12:58:50;99551.25;;;2.87;100.00
71716;BME280;59568;52.128;5.434;2023-03-08T13:01:28;99541.69;;;2.88;100.00
71716;BME280;59568;52.128;5.434;2023-03-08T13:03:55;99536.59;;;2.83;100.00
71716;BME280;59568;52.128;5.434;2023-03-08T13:08:57;99509.72;;;2.84;100.00
71716;BME280;59568;52.128;5.434;2023-03-08T13:11:37;99523.13;;;2.91;100.00
71716;BME280;59568;52.128;5.434;2023-03-08T13:14:23;99532.44;;;2.87;100.00
71716;BME280;59568;52.128;5.434;2023-03-08T13:16:50;99535.47;;;2.99;100.00
71716;BME280;59568;52.128;5.434;2023-03-08T13:19:24;99544.78;;;3.00;100.00
71716;BME280;59568;52.128;5.434;2023-03-08T13:27:15;99535.50;;;2.94;100.00
71716;BME280;59568;52.128;5.434;2023-03-08T13:29:46;99541.94;;;2.91;100.00
71716;BME280;59568;52.128;5.434;2023-03-08T13:32:16;99546.84;;;2.98;100.00
71716;BME280;59568;52.128;5.434;2023-03-08T13:34:43;99547.31;;;3.05;100.00
71716;BME280;59568;52.128;5.434;2023-03-08T13:37:20;99546.53;;;3.05;100.00
71716;BME280;59568;52.128;5.434;2023-03-08T13:39:54;99536.97;;;3.05;100.00
71716;BME280;59568;52.128;5.434;2023-03-08T13:42:22;99533.63;;;3.05;100.00
71716;BME280;59568;52.128;5.434;2023-03-08T13:45:05;99535.97;;;3.01;100.00
71716;BME280;59568;52.128;5.434;2023-03-08T13:47:34;99529.28;;;3.00;100.00
71716;BME280;59568;52.128;5.434;2023-03-08T13:50:03;99532.38;;;3.02;100.00
71716;BME280;59568;52.128;5.434;2023-03-08T13:52:33;99537.59;;;2.92;100.00
71716;BME280;59568;52.128;5.434;2023-03-08T13:55:05;99526.75;;;2.90;100.00
71716;BME280;59568;52.128;5.434;2023-03-08T13:57:35;99521.56;;;2.95;100.00
71716;BME280;59568;52.128;5.434;2023-03-08T14:00:29;99516.94;;;2.92;100.00
71716;BME280;59568;52.128;5.434;2023-03-08T14:02:58;99518.47;;;2.93;100.00
71716;BME280;59568;52.128;5.434;2023-03-08T14:05:28;99516.44;;;2.90;100.00
71716;BME280;59568;52.128;5.434;2023-03-08T14:08:03;99512.31;;;2.89;100.00
71716;BME280;59568;52.128;5.434;2023-03-08T14:11:02;99515.13;;;2.87;100.00
71716;BME280;59568;52.128;5.434;2023-03-08T14:13:35;99512.09;;;2.80;100.00
71716;BME280;59568;52.128;5.434;2023-03-08T14:16:04;99506.44;;;2.78;100.00
71716;BME280;59568;52.128;5.434;2023-03-08T14:18:35;99509.22;;;2.82;100.00
71716;BME280;59568;52.128;5.434;2023-03-08T14:23:38;99505.13;;;2.80;100.00